sensor_id;sensor_type;location;lat;lon;timestamp;pressure;altitude;pressure_sealevel;temperature;humidity
78773;BME280;68111;44.728;11.290;2023-12-20T00:02:15;101649.78;;;13.39;39.77
78773;BME280;68111;44.728;11.290;2023-12-20T00:04:41;101641.81;;;13.38;39.85
78773;BME280;68111;44.728;11.290;2023-12-20T00:07:08;101636.50;;;13.36;39.60
78773;BME280;68111;44.728;11.290;2023-12-20T00:09:35;101635.59;;;13.34;39.70
78773;BME280;68111;44.728;11.290;2023-12-20T00:12:02;101627.63;;;13.33;39.64
78773;BME280;68111;44.728;11.290;2023-12-20T00:14:29;101633.81;;;13.32;39.56
78773;BME280;68111;44.728;11.290;2023-12-20T00:16:56;101632.03;;;13.29;39.43
78773;BME280;68111;44.728;11.290;2023-12-20T00:19:23;101628.47;;;13.26;39.56
78773;BME280;68111;44.728;11.290;2023-12-20T00:21:50;101618.72;;;13.23;39.68
78773;BME280;68111;44.728;11.290;2023-12-20T00:24:17;101620.50;;;13.21;39.70
78773;BME280;68111;44.728;11.290;2023-12-20T00:26:44;101621.38;;;13.20;39.65
78773;BME280;68111;44.728;11.290;2023-12-20T00:29:11;101616.94;;;13.18;39.97
78773;BME280;68111;44.728;11.290;2023-12-20T00:31:38;101615.13;;;13.15;39.75
78773;BME280;68111;44.728;11.290;2023-12-20T00:34:05;101610.69;;;13.14;39.93
78773;BME280;68111;44.728;11.290;2023-12-20T00:36:32;101616.88;;;13.11;39.87
78773;BME280;68111;44.728;11.290;2023-12-20T00:38:59;101607.13;;;13.09;39.64
78773;BME280;68111;44.728;11.290;2023-12-20T00:41:26;101587.63;;;13.07;39.80
78773;BME280;68111;44.728;11.290;2023-12-20T00:43:52;101584.09;;;13.05;39.78
78773;BME280;68111;44.728;11.290;2023-12-20T00:46:19;101579.66;;;13.04;39.80
78773;BME280;68111;44.728;11.290;2023-12-20T00:48:46;101572.56;;;13.01;39.72
78773;BME280;68111;44.728;11.290;2023-12-20T00:51:13;101563.69;;;12.99;39.70
78773;BME280;68111;44.728;11.290;2023-12-20T00:53:40;101560.13;;;12.97;39.91
78773;BME280;68111;44.728;11.290;2023-12-20T00:56:07;101555.69;;;12.95;39.84
78773;BME280;68111;44.728;11.290;2023-12-20T00:58:34;101550.38;;;12.92;39.84
78773;BME280;68111;44.728;11.290;2023-12-20T01:01:02;101548.59;;;12.91;39.88
78773;BME280;68111;44.728;11.290;2023-12-20T01:03:29;101539.75;;;12.89;39.80
78773;BME280;68111;44.728;11.290;2023-12-20T01:05:56;101538.84;;;12.87;39.99
78773;BME280;68111;44.728;11.290;2023-12-20T01:08:23;101529.97;;;12.83;40.02
78773;BME280;68111;44.728;11.290;2023-12-20T01:10:50;101529.06;;;12.79;40.05
78773;BME280;68111;44.728;11.290;2023-12-20T01:13:16;101525.53;;;12.77;40.03
78773;BME280;68111;44.728;11.290;2023-12-20T01:15:43;101524.63;;;12.75;40.17
78773;BME280;68111;44.728;11.290;2023-12-20T01:18:10;101516.66;;;12.72;40.29
78773;BME280;68111;44.728;11.290;2023-12-20T01:20:40;101524.59;;;12.69;40.33
78773;BME280;68111;44.728;11.290;2023-12-20T01:23:07;101521.94;;;12.66;40.20
78773;BME280;68111;44.728;11.290;2023-12-20T01:25:34;101517.47;;;12.62;40.56
78773;BME280;68111;44.728;11.290;2023-12-20T01:28:00;101516.59;;;12.60;40.29
78773;BME280;68111;44.728;11.290;2023-12-20T01:30:29;101522.78;;;12.59;40.45
78773;BME280;68111;44.728;11.290;2023-12-20T01:32:56;101519.22;;;12.59;40.50
78773;BME280;68111;44.728;11.290;2023-12-20T01:35:23;101527.19;;;12.60;40.36
78773;BME280;68111;44.728;11.290;2023-12-20T01:37:50;101511.28;;;12.60;40.38
78773;BME280;68111;44.728;11.290;2023-12-20T01:40:17;101515.72;;;12.63;40.65
78773;BME280;68111;44.728;11.290;2023-12-20T01:42:44;101500.69;;;12.63;40.40
78773;BME280;68111;44.728;11.290;2023-12-20T01:45:11;101499.81;;;12.63;40.18
78773;BME280;68111;44.728;11.290;2023-12-20T01:47:37;101495.38;;;12.65;40.34
78773;BME280;68111;44.728;11.290;2023-12-20T01:50:05;101490.97;;;12.64;40.44
78773;BME280;68111;44.728;11.290;2023-12-20T01:52:35;101486.53;;;12.64;40.21
78773;BME280;68111;44.728;11.290;2023-12-20T01:55:02;101483.00;;;12.62;40.20
78773;BME280;68111;44.728;11.290;2023-12-20T01:57:31;101481.22;;;12.61;40.20
78773;BME280;68111;44.728;11.290;2023-12-20T01:59:58;101476.78;;;12.59;40.16
78773;BME280;68111;44.728;11.290;2023-12-20T02:02:26;101477.66;;;12.56;40.13
78773;BME280;68111;44.728;11.290;2023-12-20T02:04:54;101474.09;;;12.51;40.27
78773;BME280;68111;44.728;11.290;2023-12-20T02:07:22;101472.31;;;12.47;40.31
78773;BME280;68111;44.728;11.290;2023-12-20T02:09:50;101473.16;;;12.41;40.60
78773;BME280;68111;44.728;11.290;2023-12-20T02:12:18;101470.47;;;12.38;40.42
78773;BME280;68111;44.728;11.290;2023-12-20T02:14:45;101463.41;;;12.36;40.75
78773;BME280;68111;44.728;11.290;2023-12-20T02:17:12;101452.78;;;12.33;40.50
78773;BME280;68111;44.728;11.290;2023-12-20T02:19:39;101458.06;;;12.30;40.66
78773;BME280;68111;44.728;11.290;2023-12-20T02:22:10;101457.16;;;12.28;40.42
78773;BME280;68111;44.728;11.290;2023-12-20T02:24:37;101460.69;;;12.27;40.58
78773;BME280;68111;44.728;11.290;2023-12-20T02:27:08;101450.97;;;12.26;40.74
78773;BME280;68111;44.728;11.290;2023-12-20T02:29:35;101451.84;;;12.26;40.64
78773;BME280;68111;44.728;11.290;2023-12-20T02:32:03;101443.03;;;12.29;40.57
78773;BME280;68111;44.728;11.290;2023-12-20T02:34:30;101443.03;;;12.29;40.70
78773;BME280;68111;44.728;11.290;2023-12-20T02:36:56;101439.47;;;12.27;40.66
78773;BME280;68111;44.728;11.290;2023-12-20T02:39:23;101445.66;;;12.26;40.64
78773;BME280;68111;44.728;11.290;2023-12-20T02:41:50;101443.88;;;12.25;40.79
78773;BME280;68111;44.728;11.290;2023-12-20T02:44:17;101441.22;;;12.22;40.72
78773;BME280;68111;44.728;11.290;2023-12-20T02:46:44;101440.31;;;12.20;40.61
78773;BME280;68111;44.728;11.290;2023-12-20T02:49:11;101433.25;;;12.17;40.57
78773;BME280;68111;44.728;11.290;2023-12-20T02:51:38;101431.47;;;12.16;40.72
78773;BME280;68111;44.728;11.290;2023-12-20T02:54:06;101422.59;;;12.12;40.67
78773;BME280;68111;44.728;11.290;2023-12-20T02:56:33;101422.59;;;12.11;40.80
78773;BME280;68111;44.728;11.290;2023-12-20T02:59:00;101419.94;;;12.11;40.78
78773;BME280;68111;44.728;11.290;2023-12-20T03:01:29;101419.06;;;12.10;40.68
78773;BME280;68111;44.728;11.290;2023-12-20T03:03:56;101416.41;;;12.10;40.83
78773;BME280;68111;44.728;11.290;2023-12-20T03:06:24;101424.34;;;12.09;40.75
78773;BME280;68111;44.728;11.290;2023-12-20T03:08:51;101421.72;;;12.10;40.71
78773;BME280;68111;44.728;11.290;2023-12-20T03:11:18;101413.75;;;12.10;40.76
78773;BME280;68111;44.728;11.290;2023-12-20T03:13:45;101411.09;;;12.10;40.85
78773;BME280;68111;44.728;11.290;2023-12-20T03:16:13;101401.38;;;12.11;40.90
78773;BME280;68111;44.728;11.290;2023-12-20T03:18:40;101409.34;;;12.11;40.96
78773;BME280;68111;44.728;11.290;2023-12-20T03:21:07;101411.13;;;12.13;40.79
78773;BME280;68111;44.728;11.290;2023-12-20T03:23:34;101411.13;;;12.13;40.70
78773;BME280;68111;44.728;11.290;2023-12-20T03:26:01;101415.56;;;12.14;40.44
78773;BME280;68111;44.728;11.290;2023-12-20T03:28:28;101411.13;;;12.15;40.87
78773;BME280;68111;44.728;11.290;2023-12-20T03:30:55;101414.66;;;12.14;40.80
78773;BME280;68111;44.728;11.290;2023-12-20T03:33:22;101411.13;;;12.13;40.89
78773;BME280;68111;44.728;11.290;2023-12-20T03:35:49;101414.66;;;12.14;40.93
78773;BME280;68111;44.728;11.290;2023-12-20T03:38:16;101410.25;;;12.13;40.93
78773;BME280;68111;44.728;11.290;2023-12-20T03:40:43;101403.16;;;12.12;41.03
78773;BME280;68111;44.728;11.290;2023-12-20T03:43:09;101398.75;;;12.14;40.91
78773;BME280;68111;44.728;11.290;2023-12-20T03:45:36;101389.03;;;12.14;41.05
78773;BME280;68111;44.728;11.290;2023-12-20T03:48:04;101397.00;;;12.17;40.91
78773;BME280;68111;44.728;11.290;2023-12-20T03:50:31;101393.47;;;12.17;41.00
78773;BME280;68111;44.728;11.290;2023-12-20T03:52:58;101393.47;;;12.17;40.96
78773;BME280;68111;44.728;11.290;2023-12-20T03:55:25;101397.00;;;12.16;41.02
78773;BME280;68111;44.728;11.290;2023-12-20T03:57:51;101389.06;;;12.16;41.06
78773;BME280;68111;44.728;11.290;2023-12-20T04:00:18;101374.91;;;12.15;40.87
78773;BME280;68111;44.728;11.290;2023-12-20T04:02:45;101374.03;;;12.15;41.38
78773;BME280;68111;44.728;11.290;2023-12-20T04:05:12;101373.16;;;12.17;41.18
78773;BME280;68111;44.728;11.290;2023-12-20T04:07:39;101365.22;;;12.17;40.97
78773;BME280;68111;44.728;11.290;2023-12-20T04:10:06;101366.97;;;12.18;41.14
78773;BME280;68111;44.728;11.290;2023-12-20T04:12:34;101361.66;;;12.17;41.07
78773;BME280;68111;44.728;11.290;2023-12-20T04:15:01;101361.66;;;12.17;41.12
78773;BME280;68111;44.728;11.290;2023-12-20T04:17:30;101358.13;;;12.16;41.19
78773;BME280;68111;44.728;11.290;2023-12-20T04:19:57;101358.13;;;12.16;41.11
78773;BME280;68111;44.728;11.290;2023-12-20T04:22:24;101347.53;;;12.15;40.92
78773;BME280;68111;44.728;11.290;2023-12-20T04:24:51;101353.69;;;12.14;40.96
78773;BME280;68111;44.728;11.290;2023-12-20T04:27:18;101359.00;;;12.11;41.12
78773;BME280;68111;44.728;11.290;2023-12-20T04:29:45;101347.50;;;12.09;41.12
78773;BME280;68111;44.728;11.290;2023-12-20T04:32:12;101340.44;;;12.09;40.97
78773;BME280;68111;44.728;11.290;2023-12-20T04:34:38;101342.19;;;12.07;41.13
78773;BME280;68111;44.728;11.290;2023-12-20T04:37:05;101330.69;;;12.05;40.92
78773;BME280;68111;44.728;11.290;2023-12-20T04:39:32;101324.50;;;12.03;40.90
78773;BME280;68111;44.728;11.290;2023-12-20T04:41:59;101319.19;;;12.02;40.83
78773;BME280;68111;44.728;11.290;2023-12-20T04:44:26;101313.00;;;11.98;40.89
78773;BME280;68111;44.728;11.290;2023-12-20T04:46:53;101316.50;;;11.96;40.81
78773;BME280;68111;44.728;11.290;2023-12-20T04:49:20;101313.84;;;11.93;41.05
78773;BME280;68111;44.728;11.290;2023-12-20T04:51:47;101304.13;;;11.90;40.81
78773;BME280;68111;44.728;11.290;2023-12-20T04:54:14;101311.16;;;11.88;40.64
78773;BME280;68111;44.728;11.290;2023-12-20T04:56:41;101305.84;;;11.87;40.60
78773;BME280;68111;44.728;11.290;2023-12-20T04:59:08;101318.22;;;11.86;40.74
78773;BME280;68111;44.728;11.290;2023-12-20T05:01:35;101327.91;;;11.84;40.56
78773;BME280;68111;44.728;11.290;2023-12-20T05:04:02;101329.69;;;11.85;40.70
78773;BME280;68111;44.728;11.290;2023-12-20T05:06:29;101335.00;;;11.85;40.48
78773;BME280;68111;44.728;11.290;2023-12-20T05:08:56;101337.63;;;11.82;40.46
78773;BME280;68111;44.728;11.290;2023-12-20T05:11:22;101342.03;;;11.81;40.42
78773;BME280;68111;44.728;11.290;2023-12-20T05:13:49;101349.09;;;11.79;40.52
78773;BME280;68111;44.728;11.290;2023-12-20T05:16:16;101347.31;;;11.80;40.39
78773;BME280;68111;44.728;11.290;2023-12-20T05:18:48;101349.97;;;11.78;40.40
78773;BME280;68111;44.728;11.290;2023-12-20T05:21:16;101341.13;;;11.78;40.50
78773;BME280;68111;44.728;11.290;2023-12-20T05:23:43;101343.78;;;11.78;40.33
78773;BME280;68111;44.728;11.290;2023-12-20T05:26:10;101334.03;;;11.77;40.38
78773;BME280;68111;44.728;11.290;2023-12-20T05:28:37;101326.94;;;11.76;40.32
78773;BME280;68111;44.728;11.290;2023-12-20T05:31:03;101324.28;;;11.74;40.50
78773;BME280;68111;44.728;11.290;2023-12-20T05:33:30;101331.34;;;11.72;40.56
78773;BME280;68111;44.728;11.290;2023-12-20T05:35:57;101343.69;;;11.70;40.59
78773;BME280;68111;44.728;11.290;2023-12-20T05:38:24;101339.28;;;11.71;40.62
78773;BME280;68111;44.728;11.290;2023-12-20T05:40:51;101321.63;;;11.73;40.22
78773;BME280;68111;44.728;11.290;2023-12-20T05:43:18;101326.03;;;11.71;40.48
78773;BME280;68111;44.728;11.290;2023-12-20T05:45:45;101335.69;;;11.69;40.59
78773;BME280;68111;44.728;11.290;2023-12-20T05:48:12;101333.94;;;11.68;40.67
78773;BME280;68111;44.728;11.290;2023-12-20T05:50:38;101327.75;;;11.69;40.73
78773;BME280;68111;44.728;11.290;2023-12-20T05:53:06;101328.63;;;11.68;40.74
78773;BME280;68111;44.728;11.290;2023-12-20T05:55:32;101315.38;;;11.68;40.65
78773;BME280;68111;44.728;11.290;2023-12-20T05:57:59;101321.56;;;11.67;40.77
78773;BME280;68111;44.728;11.290;2023-12-20T06:00:28;101314.50;;;11.66;40.77
78773;BME280;68111;44.728;11.290;2023-12-20T06:02:54;101313.63;;;11.67;40.70
78773;BME280;68111;44.728;11.290;2023-12-20T06:05:21;101314.50;;;11.66;40.77
78773;BME280;68111;44.728;11.290;2023-12-20T06:07:48;101309.19;;;11.66;40.96
78773;BME280;68111;44.728;11.290;2023-12-20T06:10:17;101303.88;;;11.64;41.06
78773;BME280;68111;44.728;11.290;2023-12-20T06:12:44;101306.53;;;11.66;41.33
78773;BME280;68111;44.728;11.290;2023-12-20T06:15:14;101301.25;;;11.67;41.23
78773;BME280;68111;44.728;11.290;2023-12-20T06:17:40;101303.03;;;11.68;41.14
78773;BME280;68111;44.728;11.290;2023-12-20T06:20:08;101306.59;;;11.70;41.22
78773;BME280;68111;44.728;11.290;2023-12-20T06:22:36;101312.81;;;11.74;41.11
78773;BME280;68111;44.728;11.290;2023-12-20T06:25:03;101304.94;;;11.78;41.28
78773;BME280;68111;44.728;11.290;2023-12-20T06:27:30;101303.19;;;11.82;41.08
78773;BME280;68111;44.728;11.290;2023-12-20T06:29:59;101297.91;;;11.85;41.02
78773;BME280;68111;44.728;11.290;2023-12-20T06:32:26;101275.84;;;11.86;40.98
78773;BME280;68111;44.728;11.290;2023-12-20T06:34:52;101282.00;;;11.85;41.02
78773;BME280;68111;44.728;11.290;2023-12-20T06:37:19;101277.59;;;11.84;40.96
78773;BME280;68111;44.728;11.290;2023-12-20T06:39:46;101270.50;;;11.83;41.20
78773;BME280;68111;44.728;11.290;2023-12-20T06:42:13;101280.22;;;11.82;41.08
78773;BME280;68111;44.728;11.290;2023-12-20T06:44:40;101270.50;;;11.80;41.17
78773;BME280;68111;44.728;11.290;2023-12-20T06:47:07;101269.63;;;11.79;41.12
78773;BME280;68111;44.728;11.290;2023-12-20T06:49:34;101292.56;;;11.79;41.38
78773;BME280;68111;44.728;11.290;2023-12-20T06:52:01;101293.44;;;11.78;41.29
78773;BME280;68111;44.728;11.290;2023-12-20T06:54:29;101300.50;;;11.77;41.50
78773;BME280;68111;44.728;11.290;2023-12-20T06:56:55;101300.50;;;11.79;41.34
78773;BME280;68111;44.728;11.290;2023-12-20T06:59:23;101294.34;;;11.78;41.42
78773;BME280;68111;44.728;11.290;2023-12-20T07:01:49;101301.44;;;11.84;41.54
78773;BME280;68111;44.728;11.290;2023-12-20T07:04:17;101297.03;;;11.86;41.40
78773;BME280;68111;44.728;11.290;2023-12-20T07:06:49;101295.28;;;11.88;41.24
78773;BME280;68111;44.728;11.290;2023-12-20T07:09:18;101300.53;;;11.82;41.33
78773;BME280;68111;44.728;11.290;2023-12-20T07:11:45;101302.16;;;11.69;41.44
78773;BME280;68111;44.728;11.290;2023-12-20T07:14:12;101310.00;;;11.55;41.59
78773;BME280;68111;44.728;11.290;2023-12-20T07:16:39;101304.63;;;11.43;41.79
78773;BME280;68111;44.728;11.290;2023-12-20T07:19:07;101291.31;;;11.33;42.14
78773;BME280;68111;44.728;11.290;2023-12-20T07:21:34;101293.91;;;11.25;41.99
78773;BME280;68111;44.728;11.290;2023-12-20T07:24:01;101291.19;;;11.19;42.14
78773;BME280;68111;44.728;11.290;2023-12-20T07:26:28;101298.22;;;11.14;42.34
78773;BME280;68111;44.728;11.290;2023-12-20T07:28:55;101308.78;;;11.11;42.33
78773;BME280;68111;44.728;11.290;2023-12-20T07:31:21;101312.25;;;11.07;42.37
78773;BME280;68111;44.728;11.290;2023-12-20T07:33:50;101312.22;;;11.04;42.57
78773;BME280;68111;44.728;11.290;2023-12-20T07:36:19;101311.34;;;11.02;42.50
78773;BME280;68111;44.728;11.290;2023-12-20T07:38:46;101306.88;;;10.98;42.50
78773;BME280;68111;44.728;11.290;2023-12-20T07:41:13;101310.41;;;10.97;42.84
78773;BME280;68111;44.728;11.290;2023-12-20T07:43:42;101316.59;;;10.97;42.90
78773;BME280;68111;44.728;11.290;2023-12-20T07:46:09;101323.66;;;10.98;42.97
78773;BME280;68111;44.728;11.290;2023-12-20T07:48:36;101328.06;;;10.98;42.76
78773;BME280;68111;44.728;11.290;2023-12-20T07:51:06;101328.06;;;10.99;42.82
78773;BME280;68111;44.728;11.290;2023-12-20T07:53:35;101336.00;;;10.99;42.83
78773;BME280;68111;44.728;11.290;2023-12-20T07:56:02;101328.06;;;11.01;42.87
78773;BME280;68111;44.728;11.290;2023-12-20T07:58:29;101330.78;;;11.05;42.79
78773;BME280;68111;44.728;11.290;2023-12-20T08:01:16;101320.22;;;11.08;42.92
78773;BME280;68111;44.728;11.290;2023-12-20T08:03:45;101329.06;;;11.12;42.62
78773;BME280;68111;44.728;11.290;2023-12-20T08:06:12;101334.34;;;11.10;42.56
78773;BME280;68111;44.728;11.290;2023-12-20T08:08:39;101343.16;;;11.11;42.68
78773;BME280;68111;44.728;11.290;2023-12-20T08:11:05;101339.63;;;11.09;42.72
78773;BME280;68111;44.728;11.290;2023-12-20T08:13:32;101336.03;;;11.04;42.77
78773;BME280;68111;44.728;11.290;2023-12-20T08:15:59;101335.13;;;10.99;42.83
78773;BME280;68111;44.728;11.290;2023-12-20T08:18:29;101354.47;;;10.95;42.99
78773;BME280;68111;44.728;11.290;2023-12-20T08:20:56;101347.41;;;10.94;43.06
78773;BME280;68111;44.728;11.290;2023-12-20T08:23:23;101345.63;;;10.91;42.98
78773;BME280;68111;44.728;11.290;2023-12-20T08:25:53;101351.78;;;10.90;42.98
78773;BME280;68111;44.728;11.290;2023-12-20T08:28:20;101348.25;;;10.91;43.21
78773;BME280;68111;44.728;11.290;2023-12-20T08:30:47;101350.06;;;10.94;43.24
78773;BME280;68111;44.728;11.290;2023-12-20T08:33:14;101337.72;;;10.96;43.12
78773;BME280;68111;44.728;11.290;2023-12-20T08:35:41;101324.50;;;10.96;43.27
78773;BME280;68111;44.728;11.290;2023-12-20T08:38:08;101322.75;;;10.98;43.33
78773;BME280;68111;44.728;11.290;2023-12-20T08:40:35;101336.88;;;11.00;42.93
78773;BME280;68111;44.728;11.290;2023-12-20T08:43:02;101333.38;;;11.02;43.27
78773;BME280;68111;44.728;11.290;2023-12-20T08:45:29;101342.25;;;11.07;43.38
78773;BME280;68111;44.728;11.290;2023-12-20T08:47:56;101342.28;;;11.12;43.47
78773;BME280;68111;44.728;11.290;2023-12-20T08:50:27;101333.53;;;11.17;43.45
78773;BME280;68111;44.728;11.290;2023-12-20T08:52:54;101330.03;;;11.21;43.35
78773;BME280;68111;44.728;11.290;2023-12-20T08:55:21;101344.19;;;11.25;43.46
78773;BME280;68111;44.728;11.290;2023-12-20T08:57:48;101337.16;;;11.29;43.53
78773;BME280;68111;44.728;11.290;2023-12-20T09:00:16;101344.28;;;11.37;43.52
78773;BME280;68111;44.728;11.290;2023-12-20T09:02:44;101339.94;;;11.47;43.64
78773;BME280;68111;44.728;11.290;2023-12-20T09:05:11;101344.47;;;11.62;43.41
78773;BME280;68111;44.728;11.290;2023-12-20T09:07:38;101352.53;;;11.74;43.27
78773;BME280;68111;44.728;11.290;2023-12-20T09:10:05;101344.69;;;11.83;43.35
78773;BME280;68111;44.728;11.290;2023-12-20T09:12:32;101348.28;;;11.91;43.24
78773;BME280;68111;44.728;11.290;2023-12-20T09:14:59;101348.31;;;11.97;43.17
78773;BME280;68111;44.728;11.290;2023-12-20T09:17:28;101362.47;;;12.01;43.21
78773;BME280;68111;44.728;11.290;2023-12-20T09:19:55;101361.63;;;12.08;43.22
78773;BME280;68111;44.728;11.290;2023-12-20T09:22:23;101358.13;;;12.18;43.16
78773;BME280;68111;44.728;11.290;2023-12-20T09:24:50;101360.84;;;12.30;42.97
78773;BME280;68111;44.728;11.290;2023-12-20T09:27:17;101350.31;;;12.42;42.69
78773;BME280;68111;44.728;11.290;2023-12-20T09:29:43;101353.00;;;12.52;42.65
78773;BME280;68111;44.728;11.290;2023-12-20T09:32:11;101365.38;;;12.57;42.49
78773;BME280;68111;44.728;11.290;2023-12-20T09:34:37;101357.44;;;12.57;42.52
78773;BME280;68111;44.728;11.290;2023-12-20T09:37:05;101361.84;;;12.55;42.43
78773;BME280;68111;44.728;11.290;2023-12-20T09:39:35;101356.53;;;12.52;42.49
78773;BME280;68111;44.728;11.290;2023-12-20T09:42:03;101349.44;;;12.48;42.58
78773;BME280;68111;44.728;11.290;2023-12-20T09:44:31;101350.34;;;12.50;42.62
78773;BME280;68111;44.728;11.290;2023-12-20T09:47:03;101367.16;;;12.55;42.58
78773;BME280;68111;44.728;11.290;2023-12-20T09:49:32;101369.81;;;12.58;42.60
78773;BME280;68111;44.728;11.290;2023-12-20T09:52:00;101353.03;;;12.61;42.53
78773;BME280;68111;44.728;11.290;2023-12-20T09:54:28;101359.22;;;12.61;42.61
78773;BME280;68111;44.728;11.290;2023-12-20T09:56:56;101342.41;;;12.62;42.46
78773;BME280;68111;44.728;11.290;2023-12-20T09:59:23;101335.34;;;12.63;42.73
78773;BME280;68111;44.728;11.290;2023-12-20T10:01:50;101334.47;;;12.64;42.85
78773;BME280;68111;44.728;11.290;2023-12-20T10:04:23;101318.56;;;12.65;42.60
78773;BME280;68111;44.728;11.290;2023-12-20T10:06:56;101320.34;;;12.69;42.89
78773;BME280;68111;44.728;11.290;2023-12-20T10:09:24;101312.38;;;12.72;42.99
78773;BME280;68111;44.728;11.290;2023-12-20T10:11:54;101304.44;;;12.75;42.91
78773;BME280;68111;44.728;11.290;2023-12-20T10:14:21;101304.44;;;12.77;42.81
78773;BME280;68111;44.728;11.290;2023-12-20T10:16:50;101292.06;;;12.77;42.96
78773;BME280;68111;44.728;11.290;2023-12-20T10:19:17;101290.28;;;12.76;43.08
78773;BME280;68111;44.728;11.290;2023-12-20T10:21:45;101288.50;;;12.74;43.20
78773;BME280;68111;44.728;11.290;2023-12-20T10:24:17;101280.53;;;12.68;43.42
78773;BME280;68111;44.728;11.290;2023-12-20T10:26:44;101275.22;;;12.65;43.18
78773;BME280;68111;44.728;11.290;2023-12-20T10:29:11;101269.91;;;12.60;43.31
78773;BME280;68111;44.728;11.290;2023-12-20T10:31:38;101263.72;;;12.55;43.48
78773;BME280;68111;44.728;11.290;2023-12-20T10:34:05;101268.13;;;12.52;43.50
78773;BME280;68111;44.728;11.290;2023-12-20T10:36:33;101254.88;;;12.52;43.65
78773;BME280;68111;44.728;11.290;2023-12-20T10:39:01;101255.75;;;12.49;43.69
78773;BME280;68111;44.728;11.290;2023-12-20T10:41:31;101254.88;;;12.50;43.70
78773;BME280;68111;44.728;11.290;2023-12-20T10:44:03;101245.13;;;12.47;43.85
78773;BME280;68111;44.728;11.290;2023-12-20T10:46:37;101250.44;;;12.47;43.93
78773;BME280;68111;44.728;11.290;2023-12-20T10:49:07;101250.44;;;12.49;44.08
78773;BME280;68111;44.728;11.290;2023-12-20T10:51:35;101251.34;;;12.54;44.26
78773;BME280;68111;44.728;11.290;2023-12-20T10:54:04;101255.78;;;12.58;44.02
78773;BME280;68111;44.728;11.290;2023-12-20T10:56:32;101257.53;;;12.64;44.17
78773;BME280;68111;44.728;11.290;2023-12-20T10:59:02;101251.38;;;12.69;44.23
78773;BME280;68111;44.728;11.290;2023-12-20T11:01:33;101246.06;;;12.78;44.02
78773;BME280;68111;44.728;11.290;2023-12-20T11:04:06;101235.47;;;12.88;44.01
78773;BME280;68111;44.728;11.290;2023-12-20T11:06:46;101236.34;;;12.96;43.98
78773;BME280;68111;44.728;11.290;2023-12-20T11:09:31;101223.13;;;13.02;43.73
78773;BME280;68111;44.728;11.290;2023-12-20T11:12:15;101211.59;;;13.09;43.77
78773;BME280;68111;44.728;11.290;2023-12-20T11:14:47;101214.25;;;13.15;43.92
78773;BME280;68111;44.728;11.290;2023-12-20T11:17:14;101231.09;;;13.17;43.68
78773;BME280;68111;44.728;11.290;2023-12-20T11:20:03;101229.31;;;13.24;43.82
78773;BME280;68111;44.728;11.290;2023-12-20T11:22:32;101234.63;;;13.28;43.78
78773;BME280;68111;44.728;11.290;2023-12-20T11:25:05;101224.91;;;13.24;43.91
78773;BME280;68111;44.728;11.290;2023-12-20T11:28:08;101216.06;;;13.21;44.04
78773;BME280;68111;44.728;11.290;2023-12-20T11:30:45;101220.47;;;13.23;44.13
78773;BME280;68111;44.728;11.290;2023-12-20T11:33:14;101214.28;;;13.29;44.12
78773;BME280;68111;44.728;11.290;2023-12-20T11:35:46;101217.81;;;13.32;44.20
78773;BME280;68111;44.728;11.290;2023-12-20T11:38:14;101217.81;;;13.35;44.07
78773;BME280;68111;44.728;11.290;2023-12-20T11:40:42;101208.94;;;13.38;44.46
78773;BME280;68111;44.728;11.290;2023-12-20T11:43:10;101206.28;;;13.41;44.42
78773;BME280;68111;44.728;11.290;2023-12-20T11:45:37;101192.13;;;13.43;44.45
78773;BME280;68111;44.728;11.290;2023-12-20T11:48:04;101185.91;;;13.46;44.56
78773;BME280;68111;44.728;11.290;2023-12-20T11:50:33;101184.13;;;13.47;44.39
78773;BME280;68111;44.728;11.290;2023-12-20T11:53:00;101177.06;;;13.49;44.52
78773;BME280;68111;44.728;11.290;2023-12-20T11:55:27;101176.16;;;13.48;44.46
78773;BME280;68111;44.728;11.290;2023-12-20T11:57:54;101181.47;;;13.48;44.43
78773;BME280;68111;44.728;11.290;2023-12-20T12:00:20;101177.94;;;13.48;44.55
78773;BME280;68111;44.728;11.290;2023-12-20T12:03:00;101169.97;;;13.44;44.74
78773;BME280;68111;44.728;11.290;2023-12-20T12:05:31;101160.25;;;13.40;44.75
78773;BME280;68111;44.728;11.290;2023-12-20T12:07:59;101160.25;;;13.40;45.20
78773;BME280;68111;44.728;11.290;2023-12-20T12:10:25;101157.59;;;13.43;44.98
78773;BME280;68111;44.728;11.290;2023-12-20T12:12:52;101163.78;;;13.42;45.19
78773;BME280;68111;44.728;11.290;2023-12-20T12:15:19;101176.22;;;13.33;45.50
78773;BME280;68111;44.728;11.290;2023-12-20T12:17:56;101179.75;;;13.23;45.52
78773;BME280;68111;44.728;11.290;2023-12-20T12:20:23;101180.66;;;13.20;45.72
78773;BME280;68111;44.728;11.290;2023-12-20T12:23:04;101177.13;;;13.20;46.01
78773;BME280;68111;44.728;11.290;2023-12-20T12:25:34;101175.34;;;13.17;45.60
78773;BME280;68111;44.728;11.290;2023-12-20T12:28:05;101163.81;;;13.13;45.96
78773;BME280;68111;44.728;11.290;2023-12-20T12:30:32;101170.00;;;13.14;46.03
78773;BME280;68111;44.728;11.290;2023-12-20T12:33:05;101171.81;;;13.18;46.11
78773;BME280;68111;44.728;11.290;2023-12-20T12:35:31;101171.81;;;13.18;46.10
78773;BME280;68111;44.728;11.290;2023-12-20T12:37:58;101174.47;;;13.17;45.67
78773;BME280;68111;44.728;11.290;2023-12-20T12:40:25;101168.25;;;13.13;46.23
78773;BME280;68111;44.728;11.290;2023-12-20T12:42:52;101171.78;;;13.15;46.33
78773;BME280;68111;44.728;11.290;2023-12-20T12:45:19;101170.03;;;13.17;46.19